Accueil
METAR-TAF:

METAR-TAF

Aéroports :

Russian Mission, Alaska, États-Unis

latitude: 61-46-30N, longitude: 161-19-10W, altitude: 16 m

Observation

Le bulletin a été fait il y a 7 minutes, à 13:56 UTC
Vent calme
Température -23°C
Humidité 76%
Pression 1012 hPa
Visibilité: 16.1 km
Ciel clair

METAR: PARS 291356Z AUTO 00000KT 10SM CLR M23/M26 A2989 RMK AO2 SLP126 T12331261 FZRANO $

Heure: 05:03 (14:03 UTC)


TAF: absent

Observations et prévisions météorologiques de plus de 4000 aéroports (messages METAR et TAF).

Les stations disponibles sont représentées par des disques jaunes et rouges sur la carte.

Passer la souris dessus pour voir le nom de la station.

Cliquer dessus pour voir les observations et prévisions météorologiques.

Pour changer de carte: cliquez sur les boutons verts avec une croix noire pour zoomer, sur le bouton vert avec un tiret pour effectuer un zoom arrière, ou sur les flèches vertes pour les cartes adjacentes.


METAR-TAF: